Terminal Aerodrome Forecast
Issued by NWS Green Bay, WI

Home | Current Version | Previous Version | Text Only | Print | Product List | Glossary Off
Versions: 1 2 3 4 5 6 7 8 9 10 11 12 13 14 15 16 17 18 19 20 21 22 23 24 25 26 27 28 29 30 31 32 33 34 35 36 37

000
FTUS43 KGRB 261200 AAA
TAFGRB
TAF AMD
KGRB 261225Z 2612/2712 23004KT 6SM BR SCT020 BKN080
      TEMPO 2612/2614 SCT009 BKN020
     FM261400 23004KT P6SM SCT015 BKN080
      TEMPO 2614/2618 SCT009 BKN018
     FM261800 25007KT P6SM SCT020 BKN035
     FM262100 26005KT P6SM SCT040 SCT200
     FM270400 23005KT P6SM SCT050 BKN100=

USA.gov is the U.S. government's official web portal to all federal, state and local government web resources and services.